TimeCST,TemperatureF,Dew PointF,Humidity,Sea Level PressureIn,VisibilityMPH,Wind Direction,Wind SpeedMPH,Gust SpeedMPH,PrecipitationIn,Events,Conditions,WindDirDegrees,DateUTC
12:52 AM,21.9,19.0,89,29.72,7.0,North,23.0,38.0,N/A,,Overcast,350,2013-01-30 06:52:00
1:52 AM,21.9,19.0,89,29.72,8.0,North,24.2,35.7,N/A,,Overcast,350,2013-01-30 07:52:00
2:52 AM,21.9,18.0,85,29.72,7.0,North,21.9,34.5,N/A,,Overcast,350,2013-01-30 08:52:00
3:29 AM,21.2,17.6,86,29.69,9.0,North,19.6,-,N/A,,Overcast,350,2013-01-30 09:29:00
3:52 AM,21.0,17.1,85,29.75,10.0,NNW,21.9,28.8,N/A,,Overcast,340,2013-01-30 09:52:00
4:48 AM,19.4,15.8,86,29.67,10.0,NNW,19.6,31.1,N/A,,Overcast,340,2013-01-30 10:48:00
4:52 AM,19.9,15.1,81,29.72,10.0,NNW,23.0,29.9,N/A,,Overcast,340,2013-01-30 10:52:00
5:02 AM,19.4,15.8,86,29.66,10.0,NNW,23.0,29.9,N/A,,Overcast,340,2013-01-30 11:02:00
5:52 AM,18.0,12.9,81,29.70,10.0,NNW,25.3,35.7,0.00,,Overcast,340,2013-01-30 11:52:00
6:52 AM,16.0,10.9,81,29.74,10.0,NNW,25.3,31.1,N/A,,Overcast,330,2013-01-30 12:52:00
7:52 AM,15.1,10.0,80,29.75,10.0,NNW,23.0,32.2,N/A,,Overcast,330,2013-01-30 13:52:00
8:52 AM,15.1,10.0,80,29.77,7.0,NNW,26.5,34.5,0.00,Snow,Light Snow,330,2013-01-30 14:52:00
9:52 AM,15.1,8.1,74,29.77,8.0,NNW,27.6,36.8,0.00,,Overcast,330,2013-01-30 15:52:00
10:09 AM,15.8,8.6,73,29.71,4.0,NNW,24.2,34.5,0.00,Snow,Light Snow,330,2013-01-30 16:09:00
10:21 AM,15.8,8.6,73,29.71,9.0,NNW,25.3,36.8,0.00,,Overcast,330,2013-01-30 16:21:00
10:52 AM,16.0,9.0,74,29.77,8.0,NW,28.8,35.7,0.00,,Overcast,320,2013-01-30 16:52:00
11:52 AM,16.0,9.0,74,29.78,7.0,NW,29.9,36.8,0.00,Snow,Light Snow,320,2013-01-30 17:52:00
12:52 PM,17.1,10.0,74,29.78,10.0,NNW,26.5,34.5,0.00,,Overcast,330,2013-01-30 18:52:00
1:52 PM,17.1,10.0,74,29.77,9.0,NW,27.6,34.5,N/A,,Overcast,320,2013-01-30 19:52:00
2:52 PM,18.0,10.0,71,29.77,10.0,NNW,23.0,33.4,0.00,,Overcast,330,2013-01-30 20:52:00
4:23 PM,15.8,8.6,73,29.73,10.0,NW,23.0,32.2,N/A,,Overcast,320,2013-01-30 22:23:00
4:39 PM,15.8,8.6,73,29.74,10.0,NW,24.2,-,N/A,,Overcast,320,2013-01-30 22:39:00
4:52 PM,16.0,8.1,71,29.81,10.0,NW,25.3,31.1,N/A,,Overcast,320,2013-01-30 22:52:00
5:30 PM,15.8,8.6,73,29.75,5.0,NW,18.4,-,0.00,Snow,Light Snow,320,2013-01-30 23:30:00
5:52 PM,14.0,8.1,77,29.83,9.0,NW,18.4,25.3,0.00,,Overcast,320,2013-01-30 23:52:00
6:04 PM,14.0,8.6,79,29.76,9.0,NW,19.6,-,N/A,,Overcast,320,2013-01-31 00:04:00
6:52 PM,12.9,7.0,77,29.84,9.0,NW,15.0,-,0.00,Snow,Light Snow,320,2013-01-31 00:52:00
7:52 PM,10.9,3.9,73,29.85,10.0,NW,19.6,27.6,0.00,,Clear,320,2013-01-31 01:52:00
8:52 PM,10.0,3.0,73,29.86,10.0,NW,18.4,-,N/A,,Scattered Clouds,310,2013-01-31 02:52:00
9:52 PM,9.0,1.9,73,29.87,10.0,NW,12.7,-,N/A,,Clear,310,2013-01-31 03:52:00
10:35 PM,8.6,1.4,73,29.80,9.0,WNW,17.3,-,N/A,,Mostly Cloudy,300,2013-01-31 04:35:00
10:52 PM,7.0,1.0,77,29.88,8.0,WNW,18.4,-,N/A,,Mostly Cloudy,290,2013-01-31 04:52:00
11:52 PM,5.0,-0.9,76,29.90,10.0,NW,21.9,26.5,N/A,,Scattered Clouds,310,2013-01-31 05:52:00